RZO185 LPPR-LPLA
Flight info
| Callsign | RZO185 |
|---|---|
| Flight time | 2h 13m |
| Altitude | 38000 |
| Route | ASMOV DCT DIRMA DCT DETOX/M077F380 DCT 40N020W DCT BAVAS/M066F280 H121 LM |
| Aircraft | A320/M-SDE1FGHIRWXY/S |
Departure
| Time | 2026-05-08 20:12 |
|---|---|
| Airport | Francisco de Sá Carneiro Airport (LPPR) |
Arrival
| Time | 2026-05-08 22:26 |
|---|---|
| Airport | Lajes Airport (LPLA) |
| Time | Latitude | Longitude | Altitude | Speed | Heading |
|---|---|---|---|---|---|
| 2026-05-08 19:48 | 41.23732 | -8.67266 | 237 ft | 0 kts | 69° |
| 2026-05-08 20:02 | 41.23728 | -8.67279 | 237 ft | 4 kts | 69° |
| 2026-05-08 20:02 | 41.23718 | -8.67312 | 237 ft | 4 kts | 69° |
| 2026-05-08 20:03 | 41.23711 | -8.67340 | 237 ft | 4 kts | 81° |
| 2026-05-08 20:03 | 41.23711 | -8.67372 | 237 ft | 4 kts | 110° |
| 2026-05-08 20:03 | 41.23718 | -8.67392 | 237 ft | 1 kts | 128° |
| 2026-05-08 20:06 | 41.23718 | -8.67390 | 237 ft | 2 kts | 128° |
| 2026-05-08 20:06 | 41.23696 | -8.67360 | 237 ft | 6 kts | 142° |
| 2026-05-08 20:06 | 41.23641 | -8.67334 | 237 ft | 11 kts | 169° |
| 2026-05-08 20:07 | 41.23561 | -8.67359 | 237 ft | 12 kts | 208° |
| 2026-05-08 20:07 | 41.23486 | -8.67385 | 237 ft | 10 kts | 176° |
| 2026-05-08 20:07 | 41.23420 | -8.67371 | 237 ft | 9 kts | 169° |
| 2026-05-08 20:07 | 41.23363 | -8.67374 | 237 ft | 8 kts | 202° |
| 2026-05-08 20:08 | 41.23334 | -8.67423 | 237 ft | 6 kts | 249° |
| 2026-05-08 20:08 | 41.23325 | -8.67476 | 237 ft | 5 kts | 258° |
| 2026-05-08 20:08 | 41.23318 | -8.67520 | 237 ft | 4 kts | 259° |
| 2026-05-08 20:08 | 41.23313 | -8.67555 | 237 ft | 3 kts | 259° |
| 2026-05-08 20:09 | 41.23310 | -8.67577 | 237 ft | 1 kts | 259° |
| 2026-05-08 20:09 | 41.23309 | -8.67580 | 237 ft | 0 kts | 259° |
| 2026-05-08 20:10 | 41.23305 | -8.67611 | 237 ft | 4 kts | 259° |
| 2026-05-08 20:10 | 41.23301 | -8.67641 | 238 ft | 6 kts | 262° |
| 2026-05-08 20:10 | 41.23322 | -8.67721 | 239 ft | 10 kts | 318° |
| 2026-05-08 20:11 | 41.23363 | -8.67745 | 238 ft | 0 kts | 345° |
| 2026-05-08 20:11 | 41.23364 | -8.67746 | 238 ft | 0 kts | 345° |
| 2026-05-08 20:11 | 41.23458 | -8.67774 | 236 ft | 47 kts | 349° |
| 2026-05-08 20:11 | 41.24012 | -8.67914 | 224 ft | 113 kts | 348° |
| 2026-05-08 20:12 | 41.24973 | -8.68171 | 216 ft | 164 kts | 347° |
| 2026-05-08 20:12 | 41.26104 | -8.68521 | 697 ft | 173 kts | 349° |
| 2026-05-08 20:12 | 41.27331 | -8.68855 | 1279 ft | 186 kts | 351° |
| 2026-05-08 20:12 | 41.28642 | -8.69145 | 1902 ft | 195 kts | 354° |
| 2026-05-08 20:13 | 41.30048 | -8.69390 | 2258 ft | 217 kts | 355° |
| 2026-05-08 20:13 | 41.31629 | -8.69731 | 2629 ft | 243 kts | 351° |
| 2026-05-08 20:13 | 41.33365 | -8.70211 | 3136 ft | 264 kts | 349° |
| 2026-05-08 20:13 | 41.35197 | -8.70742 | 3895 ft | 274 kts | 348° |
| 2026-05-08 20:14 | 41.37091 | -8.71288 | 4718 ft | 282 kts | 348° |
| 2026-05-08 20:14 | 41.39019 | -8.71915 | 5554 ft | 289 kts | 338° |
| 2026-05-08 20:14 | 41.40668 | -8.73433 | 6340 ft | 292 kts | 307° |
| 2026-05-08 20:14 | 41.41585 | -8.75801 | 7140 ft | 287 kts | 277° |
| 2026-05-08 20:15 | 41.41593 | -8.78414 | 7965 ft | 281 kts | 254° |
| 2026-05-08 20:15 | 41.41216 | -8.80973 | 8842 ft | 283 kts | 253° |
| 2026-05-08 20:15 | 41.40739 | -8.83523 | 9706 ft | 282 kts | 244° |
| 2026-05-08 20:15 | 41.40012 | -8.85957 | 10219 ft | 298 kts | 249° |
| 2026-05-08 20:16 | 41.39671 | -8.88816 | 10536 ft | 324 kts | 260° |
| 2026-05-08 20:16 | 41.39549 | -8.91864 | 11164 ft | 333 kts | 264° |
| 2026-05-08 20:16 | 41.39507 | -8.94969 | 11918 ft | 337 kts | 265° |
| 2026-05-08 20:16 | 41.39478 | -8.98107 | 12691 ft | 340 kts | 264° |
| 2026-05-08 20:17 | 41.39425 | -9.01272 | 13454 ft | 343 kts | 264° |
| 2026-05-08 20:17 | 41.39342 | -9.04461 | 14135 ft | 346 kts | 263° |
| 2026-05-08 20:17 | 41.39230 | -9.07679 | 14788 ft | 350 kts | 263° |
| 2026-05-08 20:17 | 41.39100 | -9.10934 | 15427 ft | 354 kts | 263° |
| 2026-05-08 20:18 | 41.38958 | -9.14223 | 16027 ft | 359 kts | 263° |
| 2026-05-08 20:18 | 41.38812 | -9.17564 | 16656 ft | 362 kts | 263° |
| 2026-05-08 20:18 | 41.38667 | -9.20927 | 17283 ft | 366 kts | 264° |
| 2026-05-08 20:18 | 41.38523 | -9.24324 | 17916 ft | 369 kts | 264° |
| 2026-05-08 20:19 | 41.38378 | -9.27760 | 18477 ft | 373 kts | 264° |
| 2026-05-08 20:19 | 41.38232 | -9.31224 | 19034 ft | 376 kts | 264° |
| 2026-05-08 20:19 | 41.38086 | -9.34702 | 19601 ft | 378 kts | 264° |
| 2026-05-08 20:19 | 41.37936 | -9.38206 | 20176 ft | 380 kts | 264° |
| 2026-05-08 20:20 | 41.37785 | -9.41734 | 20746 ft | 383 kts | 264° |
| 2026-05-08 20:20 | 41.37632 | -9.45289 | 21312 ft | 385 kts | 264° |
| 2026-05-08 20:20 | 41.37478 | -9.48864 | 21872 ft | 389 kts | 264° |
| 2026-05-08 20:20 | 41.37323 | -9.52431 | 22380 ft | 392 kts | 264° |
| 2026-05-08 20:21 | 41.37159 | -9.56112 | 22927 ft | 395 kts | 263° |
| 2026-05-08 20:21 | 41.36991 | -9.59781 | 23445 ft | 398 kts | 263° |
| 2026-05-08 20:21 | 41.36820 | -9.63472 | 23890 ft | 401 kts | 263° |
| 2026-05-08 20:21 | 41.36654 | -9.67135 | 24338 ft | 403 kts | 263° |
| 2026-05-08 20:22 | 41.36487 | -9.70865 | 24775 ft | 404 kts | 263° |
| 2026-05-08 20:22 | 41.36318 | -9.74609 | 25228 ft | 405 kts | 263° |
| 2026-05-08 20:22 | 41.36145 | -9.78355 | 25677 ft | 406 kts | 263° |
| 2026-05-08 20:22 | 41.36030 | -9.80847 | 25958 ft | 407 kts | 263° |
| 2026-05-08 20:23 | 41.35796 | -9.85900 | 26507 ft | 410 kts | 263° |
| 2026-05-08 20:23 | 41.35617 | -9.89714 | 26852 ft | 413 kts | 263° |
| 2026-05-08 20:23 | 41.35434 | -9.93544 | 27237 ft | 415 kts | 262° |
| 2026-05-08 20:23 | 41.35248 | -9.97387 | 27612 ft | 417 kts | 262° |
| 2026-05-08 20:24 | 41.35061 | -10.01243 | 27992 ft | 419 kts | 262° |
| 2026-05-08 20:24 | 41.34874 | -10.05126 | 28364 ft | 421 kts | 262° |
| 2026-05-08 20:24 | 41.34684 | -10.09021 | 28719 ft | 423 kts | 262° |
| 2026-05-08 20:24 | 41.34490 | -10.12936 | 29076 ft | 424 kts | 262° |
| 2026-05-08 20:25 | 41.34295 | -10.16876 | 29423 ft | 426 kts | 262° |
| 2026-05-08 20:25 | 41.34103 | -10.20761 | 29787 ft | 428 kts | 262° |
| 2026-05-08 20:25 | 41.33903 | -10.24729 | 30033 ft | 431 kts | 262° |
| 2026-05-08 20:25 | 41.33699 | -10.28718 | 30276 ft | 433 kts | 262° |
| 2026-05-08 20:26 | 41.33491 | -10.32722 | 30537 ft | 435 kts | 262° |
| 2026-05-08 20:26 | 41.33284 | -10.36740 | 30804 ft | 436 kts | 262° |
| 2026-05-08 20:26 | 41.33077 | -10.40766 | 31065 ft | 437 kts | 262° |
| 2026-05-08 20:26 | 41.32865 | -10.44804 | 31348 ft | 437 kts | 262° |
| 2026-05-08 20:27 | 41.32652 | -10.48835 | 31720 ft | 435 kts | 262° |
| 2026-05-08 20:27 | 41.32441 | -10.52842 | 32091 ft | 434 kts | 262° |
| 2026-05-08 20:27 | 41.32232 | -10.56841 | 32460 ft | 432 kts | 262° |
| 2026-05-08 20:27 | 41.32022 | -10.60824 | 32804 ft | 432 kts | 262° |
| 2026-05-08 20:28 | 41.31807 | -10.64823 | 33090 ft | 433 kts | 262° |
| 2026-05-08 20:28 | 41.31590 | -10.68814 | 33427 ft | 432 kts | 262° |
| 2026-05-08 20:28 | 41.31373 | -10.72794 | 33764 ft | 431 kts | 262° |
| 2026-05-08 20:28 | 41.31157 | -10.76774 | 34049 ft | 431 kts | 262° |
| 2026-05-08 20:29 | 41.30940 | -10.80748 | 34299 ft | 431 kts | 262° |
| 2026-05-08 20:29 | 41.30720 | -10.84713 | 34525 ft | 431 kts | 262° |
| 2026-05-08 20:29 | 41.30497 | -10.88692 | 34744 ft | 431 kts | 262° |
| 2026-05-08 20:29 | 41.30274 | -10.92678 | 34965 ft | 432 kts | 262° |
| 2026-05-08 20:30 | 41.30047 | -10.96656 | 35181 ft | 432 kts | 262° |
| 2026-05-08 20:30 | 41.29816 | -11.00650 | 35344 ft | 434 kts | 262° |
| 2026-05-08 20:30 | 41.29585 | -11.04656 | 35526 ft | 435 kts | 262° |
| 2026-05-08 20:30 | 41.29356 | -11.08662 | 35727 ft | 435 kts | 262° |
| 2026-05-08 20:31 | 41.29123 | -11.12673 | 35929 ft | 435 kts | 262° |
| 2026-05-08 20:31 | 41.28894 | -11.16688 | 36124 ft | 435 kts | 262° |
| 2026-05-08 20:31 | 41.28663 | -11.20698 | 36323 ft | 435 kts | 262° |
| 2026-05-08 20:31 | 41.28426 | -11.24712 | 36506 ft | 435 kts | 262° |
| 2026-05-08 20:32 | 41.28187 | -11.28724 | 36701 ft | 436 kts | 262° |
| 2026-05-08 20:32 | 41.27945 | -11.32742 | 36883 ft | 436 kts | 262° |
| 2026-05-08 20:32 | 41.27700 | -11.36767 | 37033 ft | 437 kts | 262° |
| 2026-05-08 20:32 | 41.27455 | -11.40786 | 37194 ft | 437 kts | 262° |
| 2026-05-08 20:33 | 41.27210 | -11.44814 | 37356 ft | 437 kts | 262° |
| 2026-05-08 20:33 | 41.27048 | -11.47485 | 37460 ft | 438 kts | 262° |
| 2026-05-08 20:33 | 41.26799 | -11.51518 | 37633 ft | 437 kts | 262° |
| 2026-05-08 20:33 | 41.26549 | -11.55549 | 37739 ft | 438 kts | 262° |
| 2026-05-08 20:34 | 41.26049 | -11.63610 | 37739 ft | 438 kts | 262° |
| 2026-05-08 20:35 | 41.25204 | -11.77010 | 37729 ft | 438 kts | 262° |
| 2026-05-08 20:35 | 41.24770 | -11.83761 | 37730 ft | 438 kts | 262° |
| 2026-05-08 20:36 | 41.24253 | -11.91764 | 37729 ft | 437 kts | 262° |
| 2026-05-08 20:36 | 41.23721 | -11.99874 | 37734 ft | 438 kts | 261° |
| 2026-05-08 20:37 | 41.23185 | -12.07934 | 37746 ft | 438 kts | 262° |
| 2026-05-08 20:37 | 41.22648 | -12.15963 | 37738 ft | 439 kts | 261° |
| 2026-05-08 20:38 | 41.22105 | -12.24035 | 37729 ft | 439 kts | 262° |
| 2026-05-08 20:38 | 41.21550 | -12.32105 | 37727 ft | 439 kts | 261° |
| 2026-05-08 20:39 | 41.21000 | -12.40173 | 37718 ft | 439 kts | 262° |
| 2026-05-08 20:39 | 41.20439 | -12.48250 | 37722 ft | 439 kts | 262° |
| 2026-05-08 20:40 | 41.19867 | -12.56312 | 37714 ft | 439 kts | 262° |
| 2026-05-08 20:40 | 41.19296 | -12.64390 | 37703 ft | 439 kts | 261° |
| 2026-05-08 20:41 | 41.18713 | -12.72465 | 37701 ft | 439 kts | 262° |
| 2026-05-08 20:41 | 41.18128 | -12.80531 | 37709 ft | 439 kts | 262° |
| 2026-05-08 20:42 | 41.17540 | -12.88598 | 37694 ft | 439 kts | 262° |
| 2026-05-08 20:42 | 41.16946 | -12.96673 | 37689 ft | 440 kts | 262° |
| 2026-05-08 20:43 | 41.16342 | -13.04756 | 37687 ft | 440 kts | 262° |
| 2026-05-08 20:43 | 41.15732 | -13.12837 | 37684 ft | 440 kts | 262° |
| 2026-05-08 20:44 | 41.15112 | -13.20925 | 37681 ft | 440 kts | 262° |
| 2026-05-08 20:44 | 41.14492 | -13.28960 | 37672 ft | 441 kts | 262° |
| 2026-05-08 20:45 | 41.13870 | -13.37059 | 37657 ft | 441 kts | 262° |
| 2026-05-08 20:45 | 41.13240 | -13.45164 | 37663 ft | 441 kts | 262° |
| 2026-05-08 20:46 | 41.12602 | -13.53259 | 37681 ft | 441 kts | 262° |
| 2026-05-08 20:46 | 41.11955 | -13.61364 | 37673 ft | 441 kts | 262° |
| 2026-05-08 20:47 | 41.11303 | -13.69466 | 37666 ft | 442 kts | 262° |
| 2026-05-08 20:47 | 41.10640 | -13.77567 | 37667 ft | 442 kts | 262° |
| 2026-05-08 20:48 | 41.09974 | -13.85667 | 37669 ft | 442 kts | 262° |
| 2026-05-08 20:48 | 41.09303 | -13.93770 | 37656 ft | 442 kts | 262° |
| 2026-05-08 20:49 | 41.08627 | -14.01888 | 37658 ft | 443 kts | 262° |
| 2026-05-08 20:49 | 41.07946 | -14.09993 | 37663 ft | 443 kts | 262° |
| 2026-05-08 20:50 | 41.07262 | -14.18106 | 37648 ft | 443 kts | 262° |
| 2026-05-08 20:50 | 41.06575 | -14.26170 | 37654 ft | 442 kts | 262° |
| 2026-05-08 20:51 | 41.05876 | -14.34263 | 37664 ft | 442 kts | 262° |
| 2026-05-08 20:51 | 41.05179 | -14.42344 | 37656 ft | 441 kts | 262° |
| 2026-05-08 20:52 | 41.04474 | -14.50419 | 37649 ft | 441 kts | 262° |
| 2026-05-08 20:52 | 41.03756 | -14.58478 | 37655 ft | 441 kts | 262° |
| 2026-05-08 20:53 | 41.03038 | -14.66547 | 37641 ft | 440 kts | 262° |
| 2026-05-08 20:53 | 41.02318 | -14.74593 | 37647 ft | 440 kts | 262° |
| 2026-05-08 20:54 | 41.01589 | -14.82648 | 37632 ft | 440 kts | 262° |
| 2026-05-08 20:54 | 41.00860 | -14.90684 | 37638 ft | 440 kts | 262° |
| 2026-05-08 20:55 | 41.00122 | -14.98729 | 37631 ft | 440 kts | 262° |
| 2026-05-08 20:55 | 40.98837 | -15.06634 | 37626 ft | 440 kts | 256° |
| 2026-05-08 20:56 | 40.97437 | -15.14512 | 37633 ft | 440 kts | 256° |
| 2026-05-08 20:56 | 40.96042 | -15.22398 | 37627 ft | 440 kts | 256° |
| 2026-05-08 20:57 | 40.94648 | -15.30282 | 37629 ft | 440 kts | 256° |
| 2026-05-08 20:57 | 40.93242 | -15.38108 | 37632 ft | 440 kts | 256° |
| 2026-05-08 20:58 | 40.91823 | -15.45980 | 37629 ft | 440 kts | 256° |
| 2026-05-08 20:58 | 40.90403 | -15.53842 | 37626 ft | 440 kts | 256° |
| 2026-05-08 20:59 | 40.88982 | -15.61711 | 37629 ft | 440 kts | 256° |
| 2026-05-08 20:59 | 40.87555 | -15.69568 | 37632 ft | 439 kts | 256° |
| 2026-05-08 21:00 | 40.86112 | -15.77421 | 37622 ft | 439 kts | 256° |
| 2026-05-08 21:00 | 40.84669 | -15.85268 | 37628 ft | 439 kts | 256° |
| 2026-05-08 21:01 | 40.83222 | -15.93096 | 37630 ft | 439 kts | 256° |
| 2026-05-08 21:01 | 40.81781 | -16.00885 | 37628 ft | 439 kts | 256° |
| 2026-05-08 21:02 | 40.80328 | -16.08711 | 37631 ft | 439 kts | 256° |
| 2026-05-08 21:02 | 40.78874 | -16.16527 | 37634 ft | 438 kts | 256° |
| 2026-05-08 21:03 | 40.77415 | -16.24332 | 37631 ft | 438 kts | 256° |
| 2026-05-08 21:03 | 40.75952 | -16.32132 | 37634 ft | 438 kts | 256° |
| 2026-05-08 21:04 | 40.74480 | -16.39926 | 37653 ft | 437 kts | 256° |
| 2026-05-08 21:04 | 40.73016 | -16.47669 | 37648 ft | 435 kts | 256° |
| 2026-05-08 21:05 | 40.71548 | -16.55405 | 37658 ft | 434 kts | 256° |
| 2026-05-08 21:05 | 40.70071 | -16.63104 | 37658 ft | 433 kts | 256° |
| 2026-05-08 21:06 | 40.68585 | -16.70785 | 37657 ft | 433 kts | 256° |
| 2026-05-08 21:06 | 40.67105 | -16.78465 | 37668 ft | 432 kts | 256° |
| 2026-05-08 21:07 | 40.65640 | -16.86080 | 37658 ft | 431 kts | 257° |
| 2026-05-08 21:07 | 40.64159 | -16.93780 | 37679 ft | 431 kts | 256° |
| 2026-05-08 21:08 | 40.62679 | -17.01372 | 37685 ft | 431 kts | 256° |
| 2026-05-08 21:08 | 40.61181 | -17.09010 | 37682 ft | 431 kts | 257° |
| 2026-05-08 21:09 | 40.59672 | -17.16645 | 37680 ft | 430 kts | 257° |
| 2026-05-08 21:09 | 40.58173 | -17.24283 | 37681 ft | 431 kts | 257° |
| 2026-05-08 21:10 | 40.56669 | -17.31918 | 37689 ft | 431 kts | 256° |
| 2026-05-08 21:10 | 40.55163 | -17.39552 | 37702 ft | 431 kts | 257° |
| 2026-05-08 21:11 | 40.53636 | -17.47174 | 37702 ft | 431 kts | 256° |
| 2026-05-08 21:11 | 40.52109 | -17.54787 | 37707 ft | 431 kts | 257° |
| 2026-05-08 21:12 | 40.50587 | -17.62365 | 37709 ft | 431 kts | 256° |
| 2026-05-08 21:12 | 40.49048 | -17.70031 | 37711 ft | 431 kts | 256° |
| 2026-05-08 21:13 | 40.47514 | -17.77595 | 37715 ft | 431 kts | 256° |
| 2026-05-08 21:13 | 40.45968 | -17.85198 | 37711 ft | 431 kts | 256° |
| 2026-05-08 21:14 | 40.44419 | -17.92796 | 37718 ft | 430 kts | 256° |
| 2026-05-08 21:14 | 40.42868 | -18.00398 | 37721 ft | 431 kts | 256° |
| 2026-05-08 21:15 | 40.41316 | -18.07993 | 37731 ft | 430 kts | 256° |
| 2026-05-08 21:15 | 40.39756 | -18.15577 | 37733 ft | 430 kts | 256° |
| 2026-05-08 21:16 | 40.38181 | -18.23166 | 37728 ft | 431 kts | 256° |
| 2026-05-08 21:16 | 40.36616 | -18.30689 | 37746 ft | 431 kts | 256° |
| 2026-05-08 21:17 | 40.35037 | -18.38278 | 37745 ft | 431 kts | 256° |
| 2026-05-08 21:17 | 40.33457 | -18.45856 | 37743 ft | 431 kts | 257° |
| 2026-05-08 21:18 | 40.32133 | -18.52159 | 37743 ft | 431 kts | 257° |
| 2026-05-08 21:18 | 40.30540 | -18.59745 | 37752 ft | 432 kts | 257° |
| 2026-05-08 21:19 | 40.28937 | -18.67325 | 37741 ft | 432 kts | 257° |
| 2026-05-08 21:19 | 40.27334 | -18.74903 | 37762 ft | 432 kts | 257° |
| 2026-05-08 21:20 | 40.25725 | -18.82496 | 37761 ft | 432 kts | 256° |
| 2026-05-08 21:20 | 40.24104 | -18.90070 | 37767 ft | 432 kts | 256° |
| 2026-05-08 21:21 | 40.22478 | -18.97641 | 37762 ft | 432 kts | 256° |
| 2026-05-08 21:21 | 40.20859 | -19.05210 | 37775 ft | 432 kts | 256° |
| 2026-05-08 21:22 | 40.19226 | -19.12772 | 37778 ft | 432 kts | 257° |
| 2026-05-08 21:22 | 40.17589 | -19.20344 | 37767 ft | 432 kts | 257° |
| 2026-05-08 21:23 | 40.15956 | -19.27858 | 37787 ft | 432 kts | 256° |
| 2026-05-08 21:23 | 40.14309 | -19.35415 | 37784 ft | 432 kts | 257° |
| 2026-05-08 21:24 | 40.12661 | -19.42973 | 37786 ft | 432 kts | 256° |
| 2026-05-08 21:24 | 40.10993 | -19.50526 | 37788 ft | 432 kts | 257° |
| 2026-05-08 21:25 | 40.09335 | -19.58065 | 37796 ft | 431 kts | 257° |
| 2026-05-08 21:25 | 40.07679 | -19.65592 | 37799 ft | 431 kts | 257° |
| 2026-05-08 21:26 | 40.06011 | -19.73109 | 37805 ft | 431 kts | 257° |
| 2026-05-08 21:26 | 40.04339 | -19.80612 | 37795 ft | 430 kts | 257° |
| 2026-05-08 21:27 | 40.02676 | -19.88053 | 37812 ft | 429 kts | 257° |
| 2026-05-08 21:27 | 40.01003 | -19.95526 | 37820 ft | 429 kts | 257° |
| 2026-05-08 21:28 | 39.99298 | -20.02976 | 37818 ft | 429 kts | 256° |
| 2026-05-08 21:28 | 39.97437 | -20.10376 | 37828 ft | 429 kts | 255° |
| 2026-05-08 21:29 | 39.95519 | -20.17742 | 37811 ft | 429 kts | 255° |
| 2026-05-08 21:29 | 39.93618 | -20.25112 | 37820 ft | 429 kts | 255° |
| 2026-05-08 21:30 | 39.91740 | -20.32480 | 37821 ft | 429 kts | 256° |
| 2026-05-08 21:30 | 39.89873 | -20.39811 | 37829 ft | 429 kts | 255° |
| 2026-05-08 21:31 | 39.87988 | -20.47177 | 37831 ft | 429 kts | 255° |
| 2026-05-08 21:31 | 39.86095 | -20.54528 | 37828 ft | 428 kts | 256° |
| 2026-05-08 21:32 | 39.84187 | -20.61878 | 37842 ft | 428 kts | 256° |
| 2026-05-08 21:32 | 39.82284 | -20.69196 | 37844 ft | 428 kts | 256° |
| 2026-05-08 21:33 | 39.80382 | -20.76531 | 37850 ft | 428 kts | 256° |
| 2026-05-08 21:33 | 39.78477 | -20.83857 | 37835 ft | 427 kts | 256° |
| 2026-05-08 21:34 | 39.76568 | -20.91157 | 37857 ft | 426 kts | 256° |
| 2026-05-08 21:34 | 39.74646 | -20.98456 | 37860 ft | 426 kts | 256° |
| 2026-05-08 21:35 | 39.72737 | -21.05732 | 37865 ft | 425 kts | 256° |
| 2026-05-08 21:35 | 39.70835 | -21.12958 | 37861 ft | 425 kts | 256° |
| 2026-05-08 21:36 | 39.68903 | -21.20220 | 37869 ft | 425 kts | 256° |
| 2026-05-08 21:36 | 39.66971 | -21.27465 | 37883 ft | 424 kts | 256° |
| 2026-05-08 21:37 | 39.65050 | -21.34697 | 37883 ft | 423 kts | 256° |
| 2026-05-08 21:37 | 39.63132 | -21.41914 | 37881 ft | 423 kts | 256° |
| 2026-05-08 21:38 | 39.61201 | -21.49117 | 37857 ft | 423 kts | 256° |
| 2026-05-08 21:38 | 39.59273 | -21.56306 | 37874 ft | 422 kts | 256° |
| 2026-05-08 21:39 | 39.57342 | -21.63499 | 37883 ft | 422 kts | 256° |
| 2026-05-08 21:39 | 39.55399 | -21.70697 | 37894 ft | 422 kts | 256° |
| 2026-05-08 21:40 | 39.53451 | -21.77859 | 37888 ft | 421 kts | 256° |
| 2026-05-08 21:40 | 39.51518 | -21.84976 | 37870 ft | 421 kts | 257° |
| 2026-05-08 21:41 | 39.48594 | -21.95703 | 37900 ft | 421 kts | 257° |
| 2026-05-08 21:41 | 39.46642 | -22.02844 | 37900 ft | 420 kts | 257° |
| 2026-05-08 21:42 | 39.44687 | -22.09982 | 37896 ft | 420 kts | 257° |
| 2026-05-08 21:42 | 39.42728 | -22.17112 | 37902 ft | 421 kts | 256° |
| 2026-05-08 21:43 | 39.40762 | -22.24242 | 37914 ft | 421 kts | 257° |
| 2026-05-08 21:43 | 39.38795 | -22.31371 | 37910 ft | 421 kts | 257° |
| 2026-05-08 21:44 | 39.36822 | -22.38493 | 37926 ft | 421 kts | 256° |
| 2026-05-08 21:44 | 39.34839 | -22.45605 | 37919 ft | 421 kts | 256° |
| 2026-05-08 21:45 | 39.32868 | -22.52659 | 37915 ft | 420 kts | 257° |
| 2026-05-08 21:45 | 39.30883 | -22.59766 | 37916 ft | 420 kts | 257° |
| 2026-05-08 21:46 | 39.28894 | -22.66861 | 37893 ft | 420 kts | 256° |
| 2026-05-08 21:46 | 39.26903 | -22.73959 | 37924 ft | 420 kts | 257° |
| 2026-05-08 21:47 | 39.24908 | -22.81032 | 37918 ft | 419 kts | 257° |
| 2026-05-08 21:47 | 39.22909 | -22.88095 | 37935 ft | 418 kts | 257° |
| 2026-05-08 21:48 | 39.20918 | -22.95133 | 37947 ft | 418 kts | 257° |
| 2026-05-08 21:48 | 39.18923 | -23.02172 | 37946 ft | 417 kts | 257° |
| 2026-05-08 21:49 | 39.16922 | -23.09198 | 37948 ft | 417 kts | 257° |
| 2026-05-08 21:49 | 39.14918 | -23.16206 | 37947 ft | 416 kts | 257° |
| 2026-05-08 21:50 | 39.12905 | -23.23203 | 37957 ft | 415 kts | 257° |
| 2026-05-08 21:50 | 39.10917 | -23.30123 | 37966 ft | 415 kts | 257° |
| 2026-05-08 21:51 | 39.08917 | -23.37088 | 37976 ft | 415 kts | 257° |
| 2026-05-08 21:51 | 39.06909 | -23.44047 | 37942 ft | 415 kts | 257° |
| 2026-05-08 21:52 | 39.04897 | -23.50989 | 37981 ft | 413 kts | 257° |
| 2026-05-08 21:52 | 39.02887 | -23.57908 | 37987 ft | 412 kts | 257° |
| 2026-05-08 21:53 | 39.00876 | -23.64806 | 37993 ft | 411 kts | 257° |
| 2026-05-08 21:53 | 38.99797 | -23.71849 | 37992 ft | 397 kts | 272° |
| 2026-05-08 21:54 | 38.99469 | -23.78921 | 37979 ft | 396 kts | 272° |
| 2026-05-08 21:54 | 38.99126 | -23.85979 | 37996 ft | 395 kts | 272° |
| 2026-05-08 21:55 | 38.98763 | -23.93019 | 38009 ft | 394 kts | 272° |
| 2026-05-08 21:56 | 38.98227 | -24.03554 | 38013 ft | 393 kts | 272° |
| 2026-05-08 21:56 | 38.97866 | -24.10551 | 37992 ft | 392 kts | 272° |
| 2026-05-08 21:57 | 38.97508 | -24.17531 | 38036 ft | 391 kts | 272° |
| 2026-05-08 21:57 | 38.97141 | -24.24502 | 38026 ft | 391 kts | 272° |
| 2026-05-08 21:58 | 38.96764 | -24.31475 | 38026 ft | 391 kts | 272° |
| 2026-05-08 21:58 | 38.96379 | -24.38448 | 38023 ft | 391 kts | 272° |
| 2026-05-08 21:59 | 38.95997 | -24.45363 | 38015 ft | 390 kts | 272° |
| 2026-05-08 21:59 | 38.95616 | -24.52343 | 38038 ft | 389 kts | 272° |
| 2026-05-08 22:00 | 38.95233 | -24.59266 | 38041 ft | 388 kts | 272° |
| 2026-05-08 22:00 | 38.94849 | -24.66139 | 38048 ft | 388 kts | 272° |
| 2026-05-08 22:01 | 38.94452 | -24.73046 | 38028 ft | 387 kts | 272° |
| 2026-05-08 22:01 | 38.94046 | -24.79941 | 38042 ft | 387 kts | 272° |
| 2026-05-08 22:02 | 38.93712 | -24.85704 | 38045 ft | 386 kts | 272° |
| 2026-05-08 22:02 | 38.93316 | -24.92582 | 38050 ft | 386 kts | 272° |
| 2026-05-08 22:03 | 38.92909 | -24.99457 | 38057 ft | 386 kts | 272° |
| 2026-05-08 22:03 | 38.92499 | -25.06331 | 38026 ft | 385 kts | 272° |
| 2026-05-08 22:03 | 38.92293 | -25.09752 | 37897 ft | 386 kts | 272° |
| 2026-05-08 22:04 | 38.92086 | -25.13179 | 37620 ft | 384 kts | 272° |
| 2026-05-08 22:04 | 38.91881 | -25.16545 | 37354 ft | 383 kts | 272° |
| 2026-05-08 22:04 | 38.91670 | -25.19961 | 37089 ft | 382 kts | 272° |
| 2026-05-08 22:04 | 38.91460 | -25.23357 | 36824 ft | 382 kts | 272° |
| 2026-05-08 22:05 | 38.91248 | -25.26756 | 36573 ft | 382 kts | 272° |
| 2026-05-08 22:05 | 38.91037 | -25.30149 | 36315 ft | 381 kts | 272° |
| 2026-05-08 22:05 | 38.90824 | -25.33535 | 36056 ft | 379 kts | 272° |
| 2026-05-08 22:05 | 38.90611 | -25.36896 | 35816 ft | 377 kts | 272° |
| 2026-05-08 22:06 | 38.90399 | -25.40237 | 35592 ft | 374 kts | 273° |
| 2026-05-08 22:06 | 38.90191 | -25.43558 | 35346 ft | 373 kts | 273° |
| 2026-05-08 22:06 | 38.89981 | -25.46873 | 35101 ft | 371 kts | 273° |
| 2026-05-08 22:06 | 38.89770 | -25.50157 | 34860 ft | 368 kts | 273° |
| 2026-05-08 22:07 | 38.89558 | -25.53421 | 34623 ft | 366 kts | 273° |
| 2026-05-08 22:07 | 38.89348 | -25.56669 | 34389 ft | 363 kts | 273° |
| 2026-05-08 22:07 | 38.89141 | -25.59894 | 34153 ft | 361 kts | 274° |
| 2026-05-08 22:07 | 38.88935 | -25.63089 | 33897 ft | 359 kts | 274° |
| 2026-05-08 22:08 | 38.88729 | -25.66270 | 33579 ft | 355 kts | 274° |
| 2026-05-08 22:08 | 38.88524 | -25.69418 | 33311 ft | 351 kts | 274° |
| 2026-05-08 22:08 | 38.88318 | -25.72514 | 32955 ft | 345 kts | 274° |
| 2026-05-08 22:08 | 38.88116 | -25.75550 | 32544 ft | 339 kts | 274° |
| 2026-05-08 22:09 | 38.87918 | -25.78550 | 32140 ft | 335 kts | 274° |
| 2026-05-08 22:09 | 38.87721 | -25.81506 | 31745 ft | 330 kts | 274° |
| 2026-05-08 22:09 | 38.87527 | -25.84423 | 31351 ft | 326 kts | 274° |
| 2026-05-08 22:09 | 38.87336 | -25.87306 | 30974 ft | 322 kts | 275° |
| 2026-05-08 22:10 | 38.87148 | -25.90156 | 30600 ft | 318 kts | 275° |
| 2026-05-08 22:10 | 38.86959 | -25.92970 | 30241 ft | 315 kts | 275° |
| 2026-05-08 22:10 | 38.86770 | -25.95755 | 29789 ft | 311 kts | 275° |
| 2026-05-08 22:10 | 38.86581 | -25.98486 | 29492 ft | 304 kts | 275° |
| 2026-05-08 22:11 | 38.86396 | -26.01169 | 29164 ft | 301 kts | 275° |
| 2026-05-08 22:11 | 38.86217 | -26.03805 | 28839 ft | 299 kts | 275° |
| 2026-05-08 22:11 | 38.86034 | -26.06492 | 28512 ft | 298 kts | 275° |
| 2026-05-08 22:11 | 38.85853 | -26.09141 | 28185 ft | 297 kts | 275° |
| 2026-05-08 22:12 | 38.85673 | -26.11781 | 27833 ft | 297 kts | 275° |
| 2026-05-08 22:12 | 38.85496 | -26.14377 | 27469 ft | 295 kts | 275° |
| 2026-05-08 22:12 | 38.85316 | -26.16999 | 27075 ft | 294 kts | 275° |
| 2026-05-08 22:12 | 38.85135 | -26.19608 | 26663 ft | 293 kts | 275° |
| 2026-05-08 22:13 | 38.84953 | -26.22201 | 26275 ft | 292 kts | 275° |
| 2026-05-08 22:13 | 38.84768 | -26.24791 | 25867 ft | 291 kts | 274° |
| 2026-05-08 22:13 | 38.84581 | -26.27375 | 25433 ft | 290 kts | 274° |
| 2026-05-08 22:13 | 38.84395 | -26.29941 | 25039 ft | 289 kts | 274° |
| 2026-05-08 22:14 | 38.84211 | -26.32544 | 24595 ft | 305 kts | 273° |
| 2026-05-08 22:14 | 38.83691 | -26.35288 | 23812 ft | 335 kts | 254° |
| 2026-05-08 22:14 | 38.82344 | -26.37866 | 22769 ft | 355 kts | 243° |
| 2026-05-08 22:14 | 38.80810 | -26.40372 | 21714 ft | 358 kts | 241° |
| 2026-05-08 22:15 | 38.79235 | -26.42864 | 20688 ft | 360 kts | 240° |
| 2026-05-08 22:15 | 38.77650 | -26.45346 | 19701 ft | 361 kts | 240° |
| 2026-05-08 22:15 | 38.76062 | -26.47838 | 18745 ft | 361 kts | 240° |
| 2026-05-08 22:15 | 38.74480 | -26.50334 | 17699 ft | 361 kts | 240° |
| 2026-05-08 22:16 | 38.72898 | -26.52848 | 16520 ft | 364 kts | 240° |
| 2026-05-08 22:16 | 38.71314 | -26.55377 | 15387 ft | 365 kts | 239° |
| 2026-05-08 22:16 | 38.69723 | -26.57927 | 14272 ft | 366 kts | 239° |
| 2026-05-08 22:16 | 38.68133 | -26.60476 | 13110 ft | 365 kts | 239° |
| 2026-05-08 22:17 | 38.66551 | -26.63008 | 11944 ft | 364 kts | 238° |
| 2026-05-08 22:17 | 38.64973 | -26.65527 | 10818 ft | 361 kts | 238° |
| 2026-05-08 22:17 | 38.63407 | -26.68019 | 9701 ft | 357 kts | 237° |
| 2026-05-08 22:17 | 38.61859 | -26.70481 | 8510 ft | 353 kts | 237° |
| 2026-05-08 22:18 | 38.60350 | -26.72876 | 7871 ft | 335 kts | 236° |
| 2026-05-08 22:18 | 38.58967 | -26.75051 | 7745 ft | 304 kts | 237° |
| 2026-05-08 22:18 | 38.57665 | -26.77098 | 7425 ft | 285 kts | 237° |
| 2026-05-08 22:18 | 38.56449 | -26.79024 | 7016 ft | 272 kts | 238° |
| 2026-05-08 22:19 | 38.55292 | -26.80869 | 6598 ft | 260 kts | 239° |
| 2026-05-08 22:19 | 38.54522 | -26.82814 | 6200 ft | 234 kts | 267° |
| 2026-05-08 22:19 | 38.54560 | -26.84746 | 5842 ft | 214 kts | 292° |
| 2026-05-08 22:19 | 38.55256 | -26.86363 | 5453 ft | 205 kts | 317° |
| 2026-05-08 22:20 | 38.56286 | -26.87617 | 5082 ft | 205 kts | 320° |
| 2026-05-08 22:20 | 38.57324 | -26.88868 | 4710 ft | 205 kts | 319° |
| 2026-05-08 22:20 | 38.58288 | -26.90224 | 4337 ft | 206 kts | 317° |
| 2026-05-08 22:20 | 38.59328 | -26.91477 | 3966 ft | 205 kts | 322° |
| 2026-05-08 22:21 | 38.60421 | -26.92650 | 3600 ft | 204 kts | 324° |
| 2026-05-08 22:21 | 38.61489 | -26.93767 | 3523 ft | 192 kts | 325° |
| 2026-05-08 22:21 | 38.62517 | -26.94835 | 3513 ft | 190 kts | 325° |
| 2026-05-08 22:21 | 38.63543 | -26.95901 | 3351 ft | 189 kts | 326° |
| 2026-05-08 22:22 | 38.64560 | -26.96959 | 3121 ft | 188 kts | 325° |
| 2026-05-08 22:22 | 38.65571 | -26.98011 | 2854 ft | 187 kts | 325° |
| 2026-05-08 22:22 | 38.66578 | -26.99060 | 2583 ft | 186 kts | 325° |
| 2026-05-08 22:22 | 38.67582 | -27.00105 | 2308 ft | 184 kts | 325° |
| 2026-05-08 22:23 | 38.68540 | -27.01105 | 2040 ft | 172 kts | 326° |
| 2026-05-08 22:23 | 38.69433 | -27.02037 | 1827 ft | 159 kts | 326° |
| 2026-05-08 22:23 | 38.70246 | -27.02886 | 1584 ft | 142 kts | 326° |
| 2026-05-08 22:23 | 38.70964 | -27.03636 | 1391 ft | 127 kts | 327° |
| 2026-05-08 22:24 | 38.71631 | -27.04330 | 1211 ft | 121 kts | 328° |
| 2026-05-08 22:24 | 38.72276 | -27.05001 | 1038 ft | 119 kts | 327° |
| 2026-05-08 22:24 | 38.72917 | -27.05669 | 867 ft | 118 kts | 325° |
| 2026-05-08 22:24 | 38.73546 | -27.06325 | 693 ft | 119 kts | 324° |
| 2026-05-08 22:25 | 38.74201 | -27.07003 | 477 ft | 121 kts | 323° |
| 2026-05-08 22:25 | 38.74838 | -27.07683 | 367 ft | 121 kts | 321° |
| 2026-05-08 22:25 | 38.75486 | -27.08364 | 194 ft | 119 kts | 324° |
| 2026-05-08 22:25 | 38.76027 | -27.08914 | 181 ft | 63 kts | 321° |
| 2026-05-08 22:26 | 38.76191 | -27.09071 | 180 ft | 16 kts | 354° |
| 2026-05-08 22:26 | 38.76279 | -27.09068 | 179 ft | 12 kts | 4° |
| 2026-05-08 22:26 | 38.76349 | -27.09036 | 178 ft | 10 kts | 81° |
| 2026-05-08 22:26 | 38.76306 | -27.08961 | 178 ft | 11 kts | 139° |
| 2026-05-08 22:27 | 38.76238 | -27.08890 | 178 ft | 14 kts | 139° |
| 2026-05-08 22:27 | 38.76176 | -27.08874 | 178 ft | 10 kts | 213° |
| 2026-05-08 22:27 | 38.76135 | -27.08931 | 180 ft | 8 kts | 230° |
| 2026-05-08 22:27 | 38.76078 | -27.08960 | 180 ft | 14 kts | 164° |
| 2026-05-08 22:28 | 38.75978 | -27.08894 | 181 ft | 16 kts | 175° |
| 2026-05-08 22:28 | 38.75864 | -27.08901 | 180 ft | 17 kts | 184° |
| 2026-05-08 22:28 | 38.75750 | -27.08911 | 179 ft | 16 kts | 182° |
| 2026-05-08 22:28 | 38.75691 | -27.08893 | 179 ft | 8 kts | 150° |
| 2026-05-08 22:29 | 38.75659 | -27.08842 | 179 ft | 7 kts | 105° |
| 2026-05-08 22:29 | 38.75658 | -27.08833 | 179 ft | 0 kts | 101° |